Flight Track Log - Related Links

Times and Time Zones

All times are in EDT time to prevent confusion due to time zone crossing. See the FIN666 flight status page for this flight to view local times or setup timezone preferences in your user account.

Time Position Orientation Groundspeed Altitude Reporting Facility
EDT Latitude Longitude Course Direction KTS MPH feet Rate Location/Type
Thu 07:36:00 AM 55.8272 13.0881 49° Northeast  Level Estimated
Thu 07:37:00 AM 55.8966 13.2332 49° Northeast  Level Estimated
Thu 07:38:00 AM 55.9658 13.3788 50° Northeast  Level Estimated
Thu 07:39:00 AM 56.0349 13.5249 50° Northeast  Level Estimated
Thu 07:40:00 AM 56.1037 13.6716 50° Northeast  Level Estimated
Thu 07:41:00 AM 56.1725 13.8187 50° Northeast  Level Estimated
Thu 07:42:00 AM 56.2449 13.9748 50° Northeast  Level Estimated
Thu 07:43:00 AM 56.3171 14.1314 50° Northeast  Level Estimated
Thu 07:44:00 AM 56.3891 14.2886 50° Northeast  Level Estimated
Thu 07:45:00 AM 56.4609 14.4464 50° Northeast  Level Estimated
Thu 07:46:00 AM 56.5325 14.6048 51° Northeast  Level Estimated
Thu 07:47:00 AM 56.6039 14.7638 51° Northeast  Level Estimated
Thu 07:48:00 AM 56.6751 14.9234 51° Northeast  Level Estimated
Thu 07:49:00 AM 56.7461 15.0836 51° Northeast  Level Estimated
Thu 07:50:00 AM 56.8168 15.2445 51° Northeast  Level Estimated
Thu 07:51:00 AM 56.8874 15.4059 51° Northeast  Level Estimated
Thu 07:52:00 AM 56.9578 15.5679 51° Northeast  Level Estimated
Thu 07:53:00 AM 57.0279 15.7306 52° Northeast  Level Estimated
Thu 07:54:00 AM 57.0979 15.8938 52° Northeast  Level Estimated
Thu 07:55:00 AM 57.1676 16.0577 52° Northeast  Level Estimated
Thu 07:56:00 AM 57.2371 16.2222 52° Northeast  Level Estimated
Thu 07:57:00 AM 57.3064 16.3873 52° Northeast  Level Estimated
Thu 07:58:00 AM 57.3765 16.5554 52° Northeast  Level Estimated
Thu 07:59:00 AM 57.4464 16.7242 52° Northeast  Level Estimated
Thu 08:00:00 AM 57.5160 16.8936 53° Northeast  Level Estimated
Thu 08:01:00 AM 57.5854 17.0636 53° Northeast  Level Estimated
Thu 08:02:00 AM 57.6545 17.2343 53° Northeast  Level Estimated
Thu 08:03:00 AM 57.7235 17.4057 53° Northeast  Level Estimated
Thu 08:04:00 AM 57.7922 17.5777 53° Northeast  Level Estimated
Thu 08:05:00 AM 57.8606 17.7503 53° Northeast  Level Estimated
Thu 08:06:00 AM 57.9289 17.9236 53° Northeast  Level Estimated
Thu 08:07:00 AM 57.9969 18.0976 54° Northeast  Level Estimated
Thu 08:08:00 AM 58.0646 18.2722 54° Northeast  Level Estimated
Thu 08:09:00 AM 58.1321 18.4475 54° Northeast  Level Estimated
Thu 08:10:00 AM 58.1994 18.6235 54° Northeast  Level Estimated
Thu 08:11:00 AM 58.2664 18.8001 54° Northeast  Level Estimated
Thu 08:12:00 AM 58.3332 18.9774 54° Northeast  Level Estimated
Thu 08:13:00 AM 58.3998 19.1554 54° Northeast  Level Estimated
Thu 08:14:00 AM 58.4661 19.3340 55° Northeast  Level Estimated
Thu 08:15:00 AM 58.5321 19.5133 55° Northeast  Level Estimated
Thu 08:16:00 AM 58.5979 19.6933 55° Northeast  Level Estimated
Thu 08:17:00 AM 58.6634 19.8739 55° Northeast  Level Estimated
Thu 08:18:00 AM 58.7287 20.0553 55° Northeast  Level Estimated
Thu 08:19:00 AM 58.7938 20.2373 55° Northeast  Level Estimated
Thu 08:20:00 AM 58.8585 20.4200 56° Northeast  Level Estimated
Thu 08:21:00 AM 58.9230 20.6034 56° Northeast  Level Estimated
Thu 08:22:00 AM 58.9873 20.7875 56° Northeast  Level Estimated
Thu 08:23:00 AM 59.0513 20.9722 56° Northeast  Level Estimated
Thu 08:24:00 AM 59.1150 21.1577 56° Northeast  Level Estimated
Thu 08:25:00 AM 59.1785 21.3438 56° Northeast  Level Estimated
Thu 08:26:00 AM 59.2417 21.5306 56° Northeast  Level Estimated
Thu 08:27:00 AM 59.3046 21.7181 57° Northeast  Level Estimated
Thu 08:28:00 AM 59.3673 21.9063 57° Northeast  Level Estimated
Thu 08:29:00 AM 59.4297 22.0953 57° Northeast  Level Estimated
Thu 08:30:00 AM 59.4918 22.2849 57° Northeast  Level Estimated
Thu 08:31:00 AM 59.5536 22.4752 57° Northeast  Level Estimated
Thu 08:32:00 AM 59.6152 22.6662 57° Northeast  Level Estimated
Thu 08:33:00 AM 59.6764 22.8578 58° Northeast  Level Estimated
Thu 08:34:00 AM 59.7374 23.0502 58° Northeast  Level Estimated
Thu 08:35:00 AM 59.7982 23.2433 58° Northeast  Level Estimated
Thu 08:36:00 AM 59.8586 23.4372 58° Northeast  Level Estimated
Thu 08:37:00 AM 59.9188 23.6317 58° Northeast  Level Estimated
Thu 08:38:00 AM 59.9786 23.8269 58° Northeast  Level Estimated
Thu 08:39:00 AM 60.0382 24.0228 59° Northeast  Level Estimated
Thu 08:40:00 AM 60.0975 24.2194 59° Northeast  Level Estimated
Thu 08:41:00 AM 60.1564 24.4167 59° Northeast  Level Estimated
Thu 08:42:00 AM 60.2151 24.6148 59° Northeast  Level Estimated
Thu 08:43:00 AM 60.2735 24.8135 59° Northeast  Level Estimated
Thu 08:44:00 AM 60.3172 24.9633 59° Northeast  Level Estimated
Thu 08:45:00 AM 60.3172 24.9633 North  Level Estimated
Thu 08:46:00 AM 60.3172 24.9633 North  Level Estimated
Thu 08:47:00 AM 60.3172 24.9633 North  Level Estimated
Thu 08:48:00 AM 60.3172 24.9633 North  Level Estimated
Thu 08:49:00 AM 60.3172 24.9633 North  Level Estimated
Thu 08:50:00 AM 60.3172 24.9633 North  Level Estimated
Thu 08:51:00 AM 60.3172 24.9633 North  Level Estimated

Login

Don't have an account? Register now (free) for customized features, flight alerts, and more!